sensor_id;sensor_type;location;lat;lon;timestamp;temperature;humidity
77218;DHT22;66214;51.302;17.068;2023-01-01T00:01:13;14.22;68.49
77218;DHT22;66214;51.302;17.068;2023-01-01T00:03:57;14.24;68.34
77218;DHT22;66214;51.302;17.068;2023-01-01T00:06:26;14.28;68.14
77218;DHT22;66214;51.302;17.068;2023-01-01T00:08:54;14.30;68.12
77218;DHT22;66214;51.302;17.068;2023-01-01T00:11:41;14.31;68.09
77218;DHT22;66214;51.302;17.068;2023-01-01T00:14:09;14.33;68.21
77218;DHT22;66214;51.302;17.068;2023-01-01T00:16:37;14.35;68.03
77218;DHT22;66214;51.302;17.068;2023-01-01T00:19:05;14.38;67.83
77218;DHT22;66214;51.302;17.068;2023-01-01T00:21:33;14.41;67.68
77218;DHT22;66214;51.302;17.068;2023-01-01T00:24:02;14.42;67.48
77218;DHT22;66214;51.302;17.068;2023-01-01T00:26:31;14.44;67.29
77218;DHT22;66214;51.302;17.068;2023-01-01T00:28:59;14.46;67.22
77218;DHT22;66214;51.302;17.068;2023-01-01T00:31:28;14.47;67.01
77218;DHT22;66214;51.302;17.068;2023-01-01T00:33:57;14.49;66.92
77218;DHT22;66214;51.302;17.068;2023-01-01T00:36:25;14.47;66.90
77218;DHT22;66214;51.302;17.068;2023-01-01T00:38:55;14.45;66.83
77218;DHT22;66214;51.302;17.068;2023-01-01T00:41:23;14.42;66.76
77218;DHT22;66214;51.302;17.068;2023-01-01T00:43:51;14.42;66.56
77218;DHT22;66214;51.302;17.068;2023-01-01T00:46:19;14.45;66.42
77218;DHT22;66214;51.302;17.068;2023-01-01T00:48:47;14.47;66.30
77218;DHT22;66214;51.302;17.068;2023-01-01T00:51:15;14.49;66.15
77218;DHT22;66214;51.302;17.068;2023-01-01T00:53:43;14.51;66.00
77218;DHT22;66214;51.302;17.068;2023-01-01T00:56:11;14.53;65.87
77218;DHT22;66214;51.302;17.068;2023-01-01T00:58:40;14.54;65.75
77218;DHT22;66214;51.302;17.068;2023-01-01T01:01:08;14.55;65.63
77218;DHT22;66214;51.302;17.068;2023-01-01T01:03:38;14.58;65.72
77218;DHT22;66214;51.302;17.068;2023-01-01T01:06:08;14.56;65.68
77218;DHT22;66214;51.302;17.068;2023-01-01T01:08:40;14.58;65.46
77218;DHT22;66214;51.302;17.068;2023-01-01T01:11:12;14.60;65.38
77218;DHT22;66214;51.302;17.068;2023-01-01T01:13:45;14.62;65.24
77218;DHT22;66214;51.302;17.068;2023-01-01T01:18:48;14.77;64.59
77218;DHT22;66214;51.302;17.068;2023-01-01T01:21:19;14.81;64.62
77218;DHT22;66214;51.302;17.068;2023-01-01T01:23:49;14.81;64.52
77218;DHT22;66214;51.302;17.068;2023-01-01T01:26:21;14.82;64.57
77218;DHT22;66214;51.302;17.068;2023-01-01T01:28:55;14.82;64.55
77218;DHT22;66214;51.302;17.068;2023-01-01T01:31:25;14.83;64.55
77218;DHT22;66214;51.302;17.068;2023-01-01T01:33:57;14.84;64.52
77218;DHT22;66214;51.302;17.068;2023-01-01T01:36:25;14.86;64.70
77218;DHT22;66214;51.302;17.068;2023-01-01T01:38:54;14.82;64.70
77218;DHT22;66214;51.302;17.068;2023-01-01T01:41:23;14.86;64.49
77218;DHT22;66214;51.302;17.068;2023-01-01T01:43:58;14.87;64.48
77218;DHT22;66214;51.302;17.068;2023-01-01T01:46:30;14.89;64.51
77218;DHT22;66214;51.302;17.068;2023-01-01T01:49:04;14.88;64.60
77218;DHT22;66214;51.302;17.068;2023-01-01T01:51:45;14.87;64.56
77218;DHT22;66214;51.302;17.068;2023-01-01T01:54:14;14.88;64.49
77218;DHT22;66214;51.302;17.068;2023-01-01T01:56:50;14.86;64.67
77218;DHT22;66214;51.302;17.068;2023-01-01T01:59:29;14.86;64.61
77218;DHT22;66214;51.302;17.068;2023-01-01T02:02:01;14.85;64.41
77218;DHT22;66214;51.302;17.068;2023-01-01T02:04:29;14.87;64.53
77218;DHT22;66214;51.302;17.068;2023-01-01T02:06:57;14.82;64.47
77218;DHT22;66214;51.302;17.068;2023-01-01T02:09:26;14.83;64.39
77218;DHT22;66214;51.302;17.068;2023-01-01T02:11:55;14.84;64.22
77218;DHT22;66214;51.302;17.068;2023-01-01T02:14:23;14.85;64.32
77218;DHT22;66214;51.302;17.068;2023-01-01T02:16:55;14.81;64.38
77218;DHT22;66214;51.302;17.068;2023-01-01T02:22:15;14.76;64.50
77218;DHT22;66214;51.302;17.068;2023-01-01T02:28:00;14.78;64.31
77218;DHT22;66214;51.302;17.068;2023-01-01T02:34:26;14.81;64.46
77218;DHT22;66214;51.302;17.068;2023-01-01T02:37:01;14.80;64.46
77218;DHT22;66214;51.302;17.068;2023-01-01T02:39:32;14.78;64.41
77218;DHT22;66214;51.302;17.068;2023-01-01T02:42:06;14.77;64.30
77218;DHT22;66214;51.302;17.068;2023-01-01T02:44:36;14.76;64.44
77218;DHT22;66214;51.302;17.068;2023-01-01T02:47:09;14.74;64.40
77218;DHT22;66214;51.302;17.068;2023-01-01T02:55:34;14.75;64.32
77218;DHT22;66214;51.302;17.068;2023-01-01T02:58:23;14.73;64.52
77218;DHT22;66214;51.302;17.068;2023-01-01T03:01:33;14.68;64.57
77218;DHT22;66214;51.302;17.068;2023-01-01T03:10:10;14.63;64.75
77218;DHT22;66214;51.302;17.068;2023-01-01T03:15:58;14.57;64.85
77218;DHT22;66214;51.302;17.068;2023-01-01T03:21:38;14.53;64.89
77218;DHT22;66214;51.302;17.068;2023-01-01T03:24:17;14.50;64.71
77218;DHT22;66214;51.302;17.068;2023-01-01T03:26:53;14.52;64.68
77218;DHT22;66214;51.302;17.068;2023-01-01T03:29:27;14.51;64.68
77218;DHT22;66214;51.302;17.068;2023-01-01T03:32:00;14.50;64.71
77218;DHT22;66214;51.302;17.068;2023-01-01T03:34:36;14.48;64.55
77218;DHT22;66214;51.302;17.068;2023-01-01T03:37:13;14.50;64.55
77218;DHT22;66214;51.302;17.068;2023-01-01T03:39:48;14.49;64.58
77218;DHT22;66214;51.302;17.068;2023-01-01T03:42:28;14.46;64.67
77218;DHT22;66214;51.302;17.068;2023-01-01T03:47:40;14.42;64.73
77218;DHT22;66214;51.302;17.068;2023-01-01T03:50:09;14.37;64.73
77218;DHT22;66214;51.302;17.068;2023-01-01T03:55:37;14.29;64.92
77218;DHT22;66214;51.302;17.068;2023-01-01T03:58:49;14.23;65.02
77218;DHT22;66214;51.302;17.068;2023-01-01T04:01:25;14.20;65.06
77218;DHT22;66214;51.302;17.068;2023-01-01T04:03:59;14.23;65.10
77218;DHT22;66214;51.302;17.068;2023-01-01T04:06:33;14.24;65.08
77218;DHT22;66214;51.302;17.068;2023-01-01T04:09:02;14.26;65.09
77218;DHT22;66214;51.302;17.068;2023-01-01T04:11:36;14.22;65.02
77218;DHT22;66214;51.302;17.068;2023-01-01T04:14:29;14.18;65.00
77218;DHT22;66214;51.302;17.068;2023-01-01T04:17:04;14.16;65.00
77218;DHT22;66214;51.302;17.068;2023-01-01T04:19:34;14.10;65.05
77218;DHT22;66214;51.302;17.068;2023-01-01T04:22:03;14.05;65.06
77218;DHT22;66214;51.302;17.068;2023-01-01T04:28:04;14.02;65.34
77218;DHT22;66214;51.302;17.068;2023-01-01T04:30:32;14.01;65.28
77218;DHT22;66214;51.302;17.068;2023-01-01T04:33:00;13.97;65.26
77218;DHT22;66214;51.302;17.068;2023-01-01T04:35:28;13.92;65.24
77218;DHT22;66214;51.302;17.068;2023-01-01T04:37:56;13.90;65.22
77218;DHT22;66214;51.302;17.068;2023-01-01T04:40:25;13.90;65.25
77218;DHT22;66214;51.302;17.068;2023-01-01T04:42:53;13.85;65.27
77218;DHT22;66214;51.302;17.068;2023-01-01T04:45:21;13.85;65.33
77218;DHT22;66214;51.302;17.068;2023-01-01T04:47:49;13.82;65.35
77218;DHT22;66214;51.302;17.068;2023-01-01T04:50:17;13.74;65.43
77218;DHT22;66214;51.302;17.068;2023-01-01T04:52:45;13.66;65.60
77218;DHT22;66214;51.302;17.068;2023-01-01T04:55:17;13.57;65.78
77218;DHT22;66214;51.302;17.068;2023-01-01T04:57:47;13.50;66.03
77218;DHT22;66214;51.302;17.068;2023-01-01T05:00:16;13.43;66.36
77218;DHT22;66214;51.302;17.068;2023-01-01T05:02:45;13.40;66.54
77218;DHT22;66214;51.302;17.068;2023-01-01T05:05:13;13.37;66.60
77218;DHT22;66214;51.302;17.068;2023-01-01T05:07:41;13.31;66.49
77218;DHT22;66214;51.302;17.068;2023-01-01T05:10:09;13.29;66.39
77218;DHT22;66214;51.302;17.068;2023-01-01T05:12:37;13.26;66.28
77218;DHT22;66214;51.302;17.068;2023-01-01T05:15:06;13.26;66.16
77218;DHT22;66214;51.302;17.068;2023-01-01T05:17:34;13.25;66.10
77218;DHT22;66214;51.302;17.068;2023-01-01T05:20:02;13.25;66.06
77218;DHT22;66214;51.302;17.068;2023-01-01T05:22:31;13.31;65.88
77218;DHT22;66214;51.302;17.068;2023-01-01T05:24:59;13.41;65.44
77218;DHT22;66214;51.302;17.068;2023-01-01T05:27:28;13.56;65.13
77218;DHT22;66214;51.302;17.068;2023-01-01T05:29:56;13.64;64.86
77218;DHT22;66214;51.302;17.068;2023-01-01T05:32:25;13.70;64.70
77218;DHT22;66214;51.302;17.068;2023-01-01T05:34:53;13.73;64.49
77218;DHT22;66214;51.302;17.068;2023-01-01T05:37:21;13.79;64.20
77218;DHT22;66214;51.302;17.068;2023-01-01T05:39:49;13.82;64.08
77218;DHT22;66214;51.302;17.068;2023-01-01T05:42:17;13.86;63.82
77218;DHT22;66214;51.302;17.068;2023-01-01T05:44:46;13.91;63.73
77218;DHT22;66214;51.302;17.068;2023-01-01T05:47:14;13.92;63.77
77218;DHT22;66214;51.302;17.068;2023-01-01T05:49:45;13.90;63.80
77218;DHT22;66214;51.302;17.068;2023-01-01T05:52:13;13.84;63.85
77218;DHT22;66214;51.302;17.068;2023-01-01T05:54:41;13.80;63.90
77218;DHT22;66214;51.302;17.068;2023-01-01T05:57:09;13.77;64.00
77218;DHT22;66214;51.302;17.068;2023-01-01T05:59:37;13.72;64.16
77218;DHT22;66214;51.302;17.068;2023-01-01T06:02:05;13.65;64.25
77218;DHT22;66214;51.302;17.068;2023-01-01T06:04:33;13.63;64.31
77218;DHT22;66214;51.302;17.068;2023-01-01T06:07:01;13.64;64.22
77218;DHT22;66214;51.302;17.068;2023-01-01T06:09:29;13.65;64.18
77218;DHT22;66214;51.302;17.068;2023-01-01T06:11:57;13.65;64.11
77218;DHT22;66214;51.302;17.068;2023-01-01T06:14:25;13.66;64.03
77218;DHT22;66214;51.302;17.068;2023-01-01T06:16:53;13.68;64.00
77218;DHT22;66214;51.302;17.068;2023-01-01T06:19:21;13.70;63.90
77218;DHT22;66214;51.302;17.068;2023-01-01T06:21:49;13.72;63.88
77218;DHT22;66214;51.302;17.068;2023-01-01T06:24:17;13.73;63.82
77218;DHT22;66214;51.302;17.068;2023-01-01T06:26:45;13.73;63.91
77218;DHT22;66214;51.302;17.068;2023-01-01T06:29:13;13.71;63.94
77218;DHT22;66214;51.302;17.068;2023-01-01T06:35:15;13.69;64.16
77218;DHT22;66214;51.302;17.068;2023-01-01T06:37:43;13.70;64.06
77218;DHT22;66214;51.302;17.068;2023-01-01T06:40:11;13.69;63.95
77218;DHT22;66214;51.302;17.068;2023-01-01T06:42:40;13.71;63.87
77218;DHT22;66214;51.302;17.068;2023-01-01T06:45:09;13.72;63.87
77218;DHT22;66214;51.302;17.068;2023-01-01T06:47:37;13.70;63.91
77218;DHT22;66214;51.302;17.068;2023-01-01T06:50:06;13.68;63.98
77218;DHT22;66214;51.302;17.068;2023-01-01T06:52:35;13.67;64.01
77218;DHT22;66214;51.302;17.068;2023-01-01T06:55:03;13.65;64.05
77218;DHT22;66214;51.302;17.068;2023-01-01T06:57:31;13.65;63.97
77218;DHT22;66214;51.302;17.068;2023-01-01T07:00:01;13.67;63.98
77218;DHT22;66214;51.302;17.068;2023-01-01T07:02:29;13.66;63.99
77218;DHT22;66214;51.302;17.068;2023-01-01T07:04:57;13.63;64.08
77218;DHT22;66214;51.302;17.068;2023-01-01T07:07:25;13.61;64.12
77218;DHT22;66214;51.302;17.068;2023-01-01T07:09:53;13.60;64.17
77218;DHT22;66214;51.302;17.068;2023-01-01T07:12:21;13.57;64.15
77218;DHT22;66214;51.302;17.068;2023-01-01T07:14:49;13.58;64.17
77218;DHT22;66214;51.302;17.068;2023-01-01T07:17:18;13.57;64.11
77218;DHT22;66214;51.302;17.068;2023-01-01T07:19:45;13.59;64.06
77218;DHT22;66214;51.302;17.068;2023-01-01T07:22:14;13.58;64.14
77218;DHT22;66214;51.302;17.068;2023-01-01T07:24:42;13.54;64.16
77218;DHT22;66214;51.302;17.068;2023-01-01T07:27:10;13.54;64.11
77218;DHT22;66214;51.302;17.068;2023-01-01T07:29:38;13.57;63.99
77218;DHT22;66214;51.302;17.068;2023-01-01T07:32:10;13.58;64.01
77218;DHT22;66214;51.302;17.068;2023-01-01T07:34:40;13.57;64.05
77218;DHT22;66214;51.302;17.068;2023-01-01T07:37:08;13.61;63.79
77218;DHT22;66214;51.302;17.068;2023-01-01T07:39:36;13.64;63.82
77218;DHT22;66214;51.302;17.068;2023-01-01T07:42:04;13.66;63.77
77218;DHT22;66214;51.302;17.068;2023-01-01T07:44:32;13.68;63.80
77218;DHT22;66214;51.302;17.068;2023-01-01T07:50:21;13.77;63.66
77218;DHT22;66214;51.302;17.068;2023-01-01T07:52:54;13.82;63.57
77218;DHT22;66214;51.302;17.068;2023-01-01T07:55:22;13.84;63.39
77218;DHT22;66214;51.302;17.068;2023-01-01T07:57:50;13.87;63.37
77218;DHT22;66214;51.302;17.068;2023-01-01T08:00:19;13.89;63.23
77218;DHT22;66214;51.302;17.068;2023-01-01T08:02:49;13.93;63.13
77218;DHT22;66214;51.302;17.068;2023-01-01T08:05:17;13.98;62.90
77218;DHT22;66214;51.302;17.068;2023-01-01T08:11:00;14.15;62.67
77218;DHT22;66214;51.302;17.068;2023-01-01T08:13:29;14.24;62.27
77218;DHT22;66214;51.302;17.068;2023-01-01T08:15:58;14.32;61.98
77218;DHT22;66214;51.302;17.068;2023-01-01T08:18:26;14.40;61.78
77218;DHT22;66214;51.302;17.068;2023-01-01T08:20:54;14.47;61.65
77218;DHT22;66214;51.302;17.068;2023-01-01T08:23:24;14.54;61.62
77218;DHT22;66214;51.302;17.068;2023-01-01T08:25:52;14.60;61.35
77218;DHT22;66214;51.302;17.068;2023-01-01T08:28:20;14.67;60.99
77218;DHT22;66214;51.302;17.068;2023-01-01T08:30:48;14.77;60.69
77218;DHT22;66214;51.302;17.068;2023-01-01T08:33:16;14.84;60.36
77218;DHT22;66214;51.302;17.068;2023-01-01T08:35:44;14.93;60.06
77218;DHT22;66214;51.302;17.068;2023-01-01T08:38:12;15.00;60.18
77218;DHT22;66214;51.302;17.068;2023-01-01T08:40:40;15.06;60.05
77218;DHT22;66214;51.302;17.068;2023-01-01T08:43:08;15.10;60.19
77218;DHT22;66214;51.302;17.068;2023-01-01T08:45:36;15.14;59.87
77218;DHT22;66214;51.302;17.068;2023-01-01T08:48:04;15.22;59.92
77218;DHT22;66214;51.302;17.068;2023-01-01T08:50:33;15.27;59.66
77218;DHT22;66214;51.302;17.068;2023-01-01T08:53:01;15.35;59.49
77218;DHT22;66214;51.302;17.068;2023-01-01T08:55:30;15.43;59.29
77218;DHT22;66214;51.302;17.068;2023-01-01T08:57:58;15.53;59.21
77218;DHT22;66214;51.302;17.068;2023-01-01T09:00:26;15.62;59.18
77218;DHT22;66214;51.302;17.068;2023-01-01T09:02:54;15.68;58.64
77218;DHT22;66214;51.302;17.068;2023-01-01T09:05:22;15.76;58.45
77218;DHT22;66214;51.302;17.068;2023-01-01T09:07:50;15.84;57.88
77218;DHT22;66214;51.302;17.068;2023-01-01T09:10:19;15.93;57.62
77218;DHT22;66214;51.302;17.068;2023-01-01T09:12:47;16.00;57.38
77218;DHT22;66214;51.302;17.068;2023-01-01T09:15:15;16.06;57.19
77218;DHT22;66214;51.302;17.068;2023-01-01T09:17:44;16.14;57.10
77218;DHT22;66214;51.302;17.068;2023-01-01T09:20:12;16.16;56.93
77218;DHT22;66214;51.302;17.068;2023-01-01T09:22:40;16.17;56.81
77218;DHT22;66214;51.302;17.068;2023-01-01T09:25:09;16.19;56.83
77218;DHT22;66214;51.302;17.068;2023-01-01T09:27:37;16.21;56.94
77218;DHT22;66214;51.302;17.068;2023-01-01T09:30:05;16.25;57.08
77218;DHT22;66214;51.302;17.068;2023-01-01T09:32:34;16.27;57.08
77218;DHT22;66214;51.302;17.068;2023-01-01T09:35:03;16.31;57.09
77218;DHT22;66214;51.302;17.068;2023-01-01T09:37:32;16.34;56.77
77218;DHT22;66214;51.302;17.068;2023-01-01T09:40:01;16.41;56.91
77218;DHT22;66214;51.302;17.068;2023-01-01T09:42:49;16.45;56.70
77218;DHT22;66214;51.302;17.068;2023-01-01T09:45:33;16.49;56.59
77218;DHT22;66214;51.302;17.068;2023-01-01T09:48:15;16.52;56.60
77218;DHT22;66214;51.302;17.068;2023-01-01T09:50:44;16.57;56.45
77218;DHT22;66214;51.302;17.068;2023-01-01T09:53:17;16.60;56.05
77218;DHT22;66214;51.302;17.068;2023-01-01T09:55:57;16.63;56.09
77218;DHT22;66214;51.302;17.068;2023-01-01T09:58:33;16.69;55.99
77218;DHT22;66214;51.302;17.068;2023-01-01T10:16:00;17.39;54.83
77218;DHT22;66214;51.302;17.068;2023-01-01T10:19:27;17.64;54.00
77218;DHT22;66214;51.302;17.068;2023-01-01T10:22:05;18.22;52.73
77218;DHT22;66214;51.302;17.068;2023-01-01T10:27:38;19.20;52.12
77218;DHT22;66214;51.302;17.068;2023-01-01T10:30:14;19.47;51.12
77218;DHT22;66214;51.302;17.068;2023-01-01T10:32:46;19.82;49.04
77218;DHT22;66214;51.302;17.068;2023-01-01T10:35:28;20.09;48.38
77218;DHT22;66214;51.302;17.068;2023-01-01T10:38:03;20.08;47.83
77218;DHT22;66214;51.302;17.068;2023-01-01T10:40:32;20.21;47.97
77218;DHT22;66214;51.302;17.068;2023-01-01T10:43:01;20.72;48.03
77218;DHT22;66214;51.302;17.068;2023-01-01T10:45:35;20.76;46.36
77218;DHT22;66214;51.302;17.068;2023-01-01T10:48:13;20.74;46.01
77218;DHT22;66214;51.302;17.068;2023-01-01T10:53:30;20.50;46.75
77218;DHT22;66214;51.302;17.068;2023-01-01T10:56:07;20.16;46.87
77218;DHT22;66214;51.302;17.068;2023-01-01T10:58:47;19.89;47.52
77218;DHT22;66214;51.302;17.068;2023-01-01T11:01:28;19.66;47.73
77218;DHT22;66214;51.302;17.068;2023-01-01T11:06:46;19.55;48.54
77218;DHT22;66214;51.302;17.068;2023-01-01T11:12:00;19.13;49.32
77218;DHT22;66214;51.302;17.068;2023-01-01T11:17:07;18.94;49.97
77218;DHT22;66214;51.302;17.068;2023-01-01T11:19:37;18.83;50.27
77218;DHT22;66214;51.302;17.068;2023-01-01T11:22:09;18.79;50.69
77218;DHT22;66214;51.302;17.068;2023-01-01T11:25:16;18.68;50.97
77218;DHT22;66214;51.302;17.068;2023-01-01T11:30:57;18.36;51.07
77218;DHT22;66214;51.302;17.068;2023-01-01T11:33:34;18.35;51.40
77218;DHT22;66214;51.302;17.068;2023-01-01T11:36:29;18.36;51.70
77218;DHT22;66214;51.302;17.068;2023-01-01T11:41:50;18.21;51.16
77218;DHT22;66214;51.302;17.068;2023-01-01T11:47:07;17.99;51.73
77218;DHT22;66214;51.302;17.068;2023-01-01T11:49:58;17.91;51.93
77218;DHT22;66214;51.302;17.068;2023-01-01T11:52:44;17.91;52.14
77218;DHT22;66214;51.302;17.068;2023-01-01T12:00:49;17.86;52.39
77218;DHT22;66214;51.302;17.068;2023-01-01T12:03:31;17.81;52.51
77218;DHT22;66214;51.302;17.068;2023-01-01T12:06:10;17.77;52.86
77218;DHT22;66214;51.302;17.068;2023-01-01T12:11:45;17.70;53.13
77218;DHT22;66214;51.302;17.068;2023-01-01T12:20:28;17.64;53.64
77218;DHT22;66214;51.302;17.068;2023-01-01T12:23:04;17.62;53.67
77218;DHT22;66214;51.302;17.068;2023-01-01T12:25:40;17.60;53.73
77218;DHT22;66214;51.302;17.068;2023-01-01T12:33:23;17.49;54.17
77218;DHT22;66214;51.302;17.068;2023-01-01T12:41:56;17.42;54.56
77218;DHT22;66214;51.302;17.068;2023-01-01T12:50:46;17.34;54.69
77218;DHT22;66214;51.302;17.068;2023-01-01T12:56:47;17.35;54.26
77218;DHT22;66214;51.302;17.068;2023-01-01T12:59:31;17.37;54.09
77218;DHT22;66214;51.302;17.068;2023-01-01T13:02:02;17.38;53.83
77218;DHT22;66214;51.302;17.068;2023-01-01T13:05:00;17.39;53.88
77218;DHT22;66214;51.302;17.068;2023-01-01T13:07:36;17.41;53.78
77218;DHT22;66214;51.302;17.068;2023-01-01T13:10:21;17.42;53.60
77218;DHT22;66214;51.302;17.068;2023-01-01T13:13:03;17.43;53.29
77218;DHT22;66214;51.302;17.068;2023-01-01T13:18:05;17.43;52.67
77218;DHT22;66214;51.302;17.068;2023-01-01T13:20:53;17.43;52.44
77218;DHT22;66214;51.302;17.068;2023-01-01T13:31:58;17.34;52.37
77218;DHT22;66214;51.302;17.068;2023-01-01T13:45:24;17.05;52.54
77218;DHT22;66214;51.302;17.068;2023-01-01T13:48:18;16.97;52.81
77218;DHT22;66214;51.302;17.068;2023-01-01T13:56:54;16.75;53.02
77218;DHT22;66214;51.302;17.068;2023-01-01T13:59:38;16.69;53.09
77218;DHT22;66214;51.302;17.068;2023-01-01T14:02:21;16.60;53.06
77218;DHT22;66214;51.302;17.068;2023-01-01T14:05:31;16.51;53.21
77218;DHT22;66214;51.302;17.068;2023-01-01T14:08:05;16.41;53.25
77218;DHT22;66214;51.302;17.068;2023-01-01T14:10:34;16.33;53.29
77218;DHT22;66214;51.302;17.068;2023-01-01T14:15:35;16.18;53.54
77218;DHT22;66214;51.302;17.068;2023-01-01T14:18:10;16.11;53.65
77218;DHT22;66214;51.302;17.068;2023-01-01T14:20:43;16.04;53.63
77218;DHT22;66214;51.302;17.068;2023-01-01T14:26:08;15.93;53.85
77218;DHT22;66214;51.302;17.068;2023-01-01T14:28:40;15.86;54.02
77218;DHT22;66214;51.302;17.068;2023-01-01T14:31:10;15.79;54.19
77218;DHT22;66214;51.302;17.068;2023-01-01T14:33:51;15.72;54.39
77218;DHT22;66214;51.302;17.068;2023-01-01T14:36:27;15.64;54.55
77218;DHT22;66214;51.302;17.068;2023-01-01T14:38:58;15.55;54.77
77218;DHT22;66214;51.302;17.068;2023-01-01T14:41:34;15.46;55.01
77218;DHT22;66214;51.302;17.068;2023-01-01T14:44:09;15.38;55.21
77218;DHT22;66214;51.302;17.068;2023-01-01T14:46:45;15.30;55.40
77218;DHT22;66214;51.302;17.068;2023-01-01T14:49:17;15.23;55.54
77218;DHT22;66214;51.302;17.068;2023-01-01T14:51:52;15.14;55.71
77218;DHT22;66214;51.302;17.068;2023-01-01T14:54:30;15.04;55.95
77218;DHT22;66214;51.302;17.068;2023-01-01T14:57:15;14.95;56.30
77218;DHT22;66214;51.302;17.068;2023-01-01T14:59:49;14.84;56.57
77218;DHT22;66214;51.302;17.068;2023-01-01T15:05:13;14.68;57.19
77218;DHT22;66214;51.302;17.068;2023-01-01T15:08:04;14.57;57.93
77218;DHT22;66214;51.302;17.068;2023-01-01T15:10:36;14.48;58.18
77218;DHT22;66214;51.302;17.068;2023-01-01T15:13:05;14.38;58.82
77218;DHT22;66214;51.302;17.068;2023-01-01T15:15:35;14.28;59.38
77218;DHT22;66214;51.302;17.068;2023-01-01T15:18:33;14.19;60.19
77218;DHT22;66214;51.302;17.068;2023-01-01T15:21:06;14.09;60.22
77218;DHT22;66214;51.302;17.068;2023-01-01T15:23:50;14.04;60.68
77218;DHT22;66214;51.302;17.068;2023-01-01T15:26:41;14.00;60.91
77218;DHT22;66214;51.302;17.068;2023-01-01T15:29:16;14.00;61.02
77218;DHT22;66214;51.302;17.068;2023-01-01T15:31:58;14.01;61.31
77218;DHT22;66214;51.302;17.068;2023-01-01T15:34:30;14.03;61.29
77218;DHT22;66214;51.302;17.068;2023-01-01T15:37:15;14.02;61.29
77218;DHT22;66214;51.302;17.068;2023-01-01T15:39:58;13.99;61.52
77218;DHT22;66214;51.302;17.068;2023-01-01T15:42:32;13.92;61.55
77218;DHT22;66214;51.302;17.068;2023-01-01T15:51:18;13.72;61.76
77218;DHT22;66214;51.302;17.068;2023-01-01T15:59:31;13.61;62.33
77218;DHT22;66214;51.302;17.068;2023-01-01T16:02:03;13.56;62.39
77218;DHT22;66214;51.302;17.068;2023-01-01T16:04:43;13.51;62.24
77218;DHT22;66214;51.302;17.068;2023-01-01T16:07:21;13.45;62.37
77218;DHT22;66214;51.302;17.068;2023-01-01T16:09:52;13.40;62.76
77218;DHT22;66214;51.302;17.068;2023-01-01T16:12:21;13.39;62.80
77218;DHT22;66214;51.302;17.068;2023-01-01T16:14:49;13.37;63.00
77218;DHT22;66214;51.302;17.068;2023-01-01T16:17:18;13.35;62.98
77218;DHT22;66214;51.302;17.068;2023-01-01T16:19:48;13.30;62.91
77218;DHT22;66214;51.302;17.068;2023-01-01T16:22:18;13.24;63.05
77218;DHT22;66214;51.302;17.068;2023-01-01T16:24:47;13.19;63.11
77218;DHT22;66214;51.302;17.068;2023-01-01T16:27:15;13.13;63.30
77218;DHT22;66214;51.302;17.068;2023-01-01T16:29:43;13.08;63.34
77218;DHT22;66214;51.302;17.068;2023-01-01T16:32:13;13.05;63.40
77218;DHT22;66214;51.302;17.068;2023-01-01T16:34:44;13.04;63.70
77218;DHT22;66214;51.302;17.068;2023-01-01T16:37:12;13.04;63.90
77218;DHT22;66214;51.302;17.068;2023-01-01T16:39:40;13.03;64.09
77218;DHT22;66214;51.302;17.068;2023-01-01T16:42:09;13.05;64.20
77218;DHT22;66214;51.302;17.068;2023-01-01T16:44:42;13.09;64.16
77218;DHT22;66214;51.302;17.068;2023-01-01T16:47:10;13.12;64.02
77218;DHT22;66214;51.302;17.068;2023-01-01T16:53:12;13.18;64.11
77218;DHT22;66214;51.302;17.068;2023-01-01T16:55:40;13.18;64.03
77218;DHT22;66214;51.302;17.068;2023-01-01T16:58:08;13.18;63.95
77218;DHT22;66214;51.302;17.068;2023-01-01T17:04:11;13.16;64.13
77218;DHT22;66214;51.302;17.068;2023-01-01T17:06:39;13.16;64.13
77218;DHT22;66214;51.302;17.068;2023-01-01T17:09:07;13.15;64.09
77218;DHT22;66214;51.302;17.068;2023-01-01T17:11:35;13.13;64.18
77218;DHT22;66214;51.302;17.068;2023-01-01T17:14:07;13.12;64.21
77218;DHT22;66214;51.302;17.068;2023-01-01T17:16:37;13.11;64.27
77218;DHT22;66214;51.302;17.068;2023-01-01T17:19:05;13.10;64.25
77218;DHT22;66214;51.302;17.068;2023-01-01T17:21:36;13.06;64.35
77218;DHT22;66214;51.302;17.068;2023-01-01T17:24:05;13.06;64.41
77218;DHT22;66214;51.302;17.068;2023-01-01T17:26:33;13.07;64.36
77218;DHT22;66214;51.302;17.068;2023-01-01T17:29:01;13.05;64.29
77218;DHT22;66214;51.302;17.068;2023-01-01T17:31:30;13.01;64.32
77218;DHT22;66214;51.302;17.068;2023-01-01T17:33:58;12.96;64.59
77218;DHT22;66214;51.302;17.068;2023-01-01T17:36:26;12.92;64.64
77218;DHT22;66214;51.302;17.068;2023-01-01T17:38:54;12.89;64.86
77218;DHT22;66214;51.302;17.068;2023-01-01T17:41:23;12.86;64.98
77218;DHT22;66214;51.302;17.068;2023-01-01T17:43:51;12.85;64.98
77218;DHT22;66214;51.302;17.068;2023-01-01T17:46:21;12.82;65.04
77218;DHT22;66214;51.302;17.068;2023-01-01T17:48:52;12.79;65.01
77218;DHT22;66214;51.302;17.068;2023-01-01T17:51:20;12.77;64.91
77218;DHT22;66214;51.302;17.068;2023-01-01T17:53:49;12.72;64.96
77218;DHT22;66214;51.302;17.068;2023-01-01T17:56:18;12.67;65.01
77218;DHT22;66214;51.302;17.068;2023-01-01T17:58:49;12.62;64.98
77218;DHT22;66214;51.302;17.068;2023-01-01T18:03:54;12.54;65.32
77218;DHT22;66214;51.302;17.068;2023-01-01T18:06:25;12.50;65.49
77218;DHT22;66214;51.302;17.068;2023-01-01T18:08:56;12.50;65.50
77218;DHT22;66214;51.302;17.068;2023-01-01T18:11:28;12.49;65.55
77218;DHT22;66214;51.302;17.068;2023-01-01T18:13:59;12.49;65.60
77218;DHT22;66214;51.302;17.068;2023-01-01T18:16:30;12.50;65.64
77218;DHT22;66214;51.302;17.068;2023-01-01T18:19:01;12.52;65.70
77218;DHT22;66214;51.302;17.068;2023-01-01T18:21:32;12.57;65.88
77218;DHT22;66214;51.302;17.068;2023-01-01T18:24:01;12.61;65.84
77218;DHT22;66214;51.302;17.068;2023-01-01T18:26:29;12.64;65.81
77218;DHT22;66214;51.302;17.068;2023-01-01T18:28:59;12.66;65.67
77218;DHT22;66214;51.302;17.068;2023-01-01T18:31:29;12.66;65.64
77218;DHT22;66214;51.302;17.068;2023-01-01T18:34:00;12.62;65.60
77218;DHT22;66214;51.302;17.068;2023-01-01T18:36:31;12.62;65.63
77218;DHT22;66214;51.302;17.068;2023-01-01T18:39:07;12.62;65.66
77218;DHT22;66214;51.302;17.068;2023-01-01T18:45:12;12.59;65.79
77218;DHT22;66214;51.302;17.068;2023-01-01T18:47:46;12.59;65.75
77218;DHT22;66214;51.302;17.068;2023-01-01T18:55:40;12.61;65.85